sensor_id;sensor_type;location;lat;lon;timestamp;P1;durP1;ratioP1;P2;durP2;ratioP2
23800;SDS011;12081;48.614;10.226;2023-10-19T00:01:12;18.53;;;16.47;;
23800;SDS011;12081;48.614;10.226;2023-10-19T00:03:59;19.73;;;16.87;;
23800;SDS011;12081;48.614;10.226;2023-10-19T00:06:43;18.83;;;15.70;;
23800;SDS011;12081;48.614;10.226;2023-10-19T00:09:28;18.60;;;16.70;;
23800;SDS011;12081;48.614;10.226;2023-10-19T00:12:21;18.73;;;16.53;;
23800;SDS011;12081;48.614;10.226;2023-10-19T00:15:06;19.40;;;16.03;;
23800;SDS011;12081;48.614;10.226;2023-10-19T00:17:52;19.17;;;16.70;;
23800;SDS011;12081;48.614;10.226;2023-10-19T00:20:37;20.70;;;18.50;;
23800;SDS011;12081;48.614;10.226;2023-10-19T00:23:25;19.93;;;17.13;;
23800;SDS011;12081;48.614;10.226;2023-10-19T00:26:19;21.77;;;18.27;;
23800;SDS011;12081;48.614;10.226;2023-10-19T00:29:03;21.93;;;18.10;;
23800;SDS011;12081;48.614;10.226;2023-10-19T00:32:02;19.77;;;17.70;;
23800;SDS011;12081;48.614;10.226;2023-10-19T00:34:46;21.57;;;19.13;;
23800;SDS011;12081;48.614;10.226;2023-10-19T00:37:35;22.47;;;18.43;;
23800;SDS011;12081;48.614;10.226;2023-10-19T00:40:25;22.70;;;18.17;;
23800;SDS011;12081;48.614;10.226;2023-10-19T00:43:28;20.40;;;18.17;;
23800;SDS011;12081;48.614;10.226;2023-10-19T00:46:16;20.33;;;18.17;;
23800;SDS011;12081;48.614;10.226;2023-10-19T00:49:02;21.57;;;19.03;;
23800;SDS011;12081;48.614;10.226;2023-10-19T00:51:52;24.00;;;18.77;;
23800;SDS011;12081;48.614;10.226;2023-10-19T00:54:46;24.80;;;18.93;;
23800;SDS011;12081;48.614;10.226;2023-10-19T00:57:35;21.47;;;18.03;;
23800;SDS011;12081;48.614;10.226;2023-10-19T01:00:21;22.37;;;19.23;;
23800;SDS011;12081;48.614;10.226;2023-10-19T01:03:14;24.33;;;19.00;;
23800;SDS011;12081;48.614;10.226;2023-10-19T01:06:00;22.33;;;19.30;;
23800;SDS011;12081;48.614;10.226;2023-10-19T01:08:50;20.17;;;17.87;;
23800;SDS011;12081;48.614;10.226;2023-10-19T01:11:58;23.10;;;19.53;;
23800;SDS011;12081;48.614;10.226;2023-10-19T01:15:32;18.87;;;16.87;;
23800;SDS011;12081;48.614;10.226;2023-10-19T01:18:21;21.30;;;17.60;;
23800;SDS011;12081;48.614;10.226;2023-10-19T01:21:06;19.00;;;16.93;;
23800;SDS011;12081;48.614;10.226;2023-10-19T01:23:51;22.27;;;18.67;;
23800;SDS011;12081;48.614;10.226;2023-10-19T01:27:28;19.93;;;17.30;;
23800;SDS011;12081;48.614;10.226;2023-10-19T01:30:13;24.97;;;18.20;;
23800;SDS011;12081;48.614;10.226;2023-10-19T01:33:04;20.20;;;16.87;;
23800;SDS011;12081;48.614;10.226;2023-10-19T01:36:06;19.93;;;17.40;;
23800;SDS011;12081;48.614;10.226;2023-10-19T01:39:00;18.47;;;16.50;;
23800;SDS011;12081;48.614;10.226;2023-10-19T01:44:30;20.37;;;18.37;;
23800;SDS011;12081;48.614;10.226;2023-10-19T01:47:15;22.13;;;17.77;;
23800;SDS011;12081;48.614;10.226;2023-10-19T01:49:59;19.73;;;17.70;;
23800;SDS011;12081;48.614;10.226;2023-10-19T01:52:43;19.40;;;16.27;;
23800;SDS011;12081;48.614;10.226;2023-10-19T01:55:28;19.90;;;17.10;;
23800;SDS011;12081;48.614;10.226;2023-10-19T01:58:18;22.47;;;18.13;;
23800;SDS011;12081;48.614;10.226;2023-10-19T02:01:02;21.60;;;17.43;;
23800;SDS011;12081;48.614;10.226;2023-10-19T02:03:52;20.57;;;18.37;;
23800;SDS011;12081;48.614;10.226;2023-10-19T02:06:43;27.03;;;18.77;;
23800;SDS011;12081;48.614;10.226;2023-10-19T02:09:30;21.87;;;18.20;;
23800;SDS011;12081;48.614;10.226;2023-10-19T02:12:17;23.30;;;17.90;;
23800;SDS011;12081;48.614;10.226;2023-10-19T02:15:03;21.33;;;17.60;;
23800;SDS011;12081;48.614;10.226;2023-10-19T02:17:48;21.13;;;18.70;;
23800;SDS011;12081;48.614;10.226;2023-10-19T02:20:32;19.77;;;17.67;;
23800;SDS011;12081;48.614;10.226;2023-10-19T02:23:17;20.60;;;17.07;;
23800;SDS011;12081;48.614;10.226;2023-10-19T02:26:01;19.30;;;17.17;;
23800;SDS011;12081;48.614;10.226;2023-10-19T02:28:47;19.60;;;17.50;;
23800;SDS011;12081;48.614;10.226;2023-10-19T02:31:34;21.57;;;17.23;;
23800;SDS011;12081;48.614;10.226;2023-10-19T02:34:24;20.53;;;18.33;;
23800;SDS011;12081;48.614;10.226;2023-10-19T02:37:08;19.53;;;17.07;;
23800;SDS011;12081;48.614;10.226;2023-10-19T02:39:52;19.90;;;17.90;;
23800;SDS011;12081;48.614;10.226;2023-10-19T02:42:36;21.07;;;18.03;;
23800;SDS011;12081;48.614;10.226;2023-10-19T02:45:21;20.37;;;18.27;;
23800;SDS011;12081;48.614;10.226;2023-10-19T02:48:05;20.50;;;17.50;;
23800;SDS011;12081;48.614;10.226;2023-10-19T02:50:55;21.60;;;18.50;;
23800;SDS011;12081;48.614;10.226;2023-10-19T02:53:39;22.53;;;18.33;;
23800;SDS011;12081;48.614;10.226;2023-10-19T02:56:24;22.07;;;19.20;;
23800;SDS011;12081;48.614;10.226;2023-10-19T02:59:09;21.57;;;18.93;;
23800;SDS011;12081;48.614;10.226;2023-10-19T03:01:58;23.77;;;18.23;;
23800;SDS011;12081;48.614;10.226;2023-10-19T03:11:22;28.23;;;23.23;;
23800;SDS011;12081;48.614;10.226;2023-10-19T03:14:10;26.40;;;22.57;;
23800;SDS011;12081;48.614;10.226;2023-10-19T03:16:58;33.03;;;24.10;;
23800;SDS011;12081;48.614;10.226;2023-10-19T03:19:43;34.43;;;26.50;;
23800;SDS011;12081;48.614;10.226;2023-10-19T03:22:28;35.27;;;28.00;;
23800;SDS011;12081;48.614;10.226;2023-10-19T03:25:14;37.20;;;27.97;;
23800;SDS011;12081;48.614;10.226;2023-10-19T03:28:18;39.00;;;27.20;;
23800;SDS011;12081;48.614;10.226;2023-10-19T03:31:02;41.00;;;29.57;;
23800;SDS011;12081;48.614;10.226;2023-10-19T03:33:48;39.23;;;27.87;;
23800;SDS011;12081;48.614;10.226;2023-10-19T03:36:43;39.60;;;30.17;;
23800;SDS011;12081;48.614;10.226;2023-10-19T03:39:27;41.37;;;31.47;;
23800;SDS011;12081;48.614;10.226;2023-10-19T03:42:12;37.53;;;29.87;;
23800;SDS011;12081;48.614;10.226;2023-10-19T03:45:00;43.43;;;31.80;;
23800;SDS011;12081;48.614;10.226;2023-10-19T03:47:52;42.40;;;30.43;;
23800;SDS011;12081;48.614;10.226;2023-10-19T03:50:39;38.83;;;30.27;;
23800;SDS011;12081;48.614;10.226;2023-10-19T03:53:23;38.87;;;29.77;;
23800;SDS011;12081;48.614;10.226;2023-10-19T03:56:08;41.80;;;29.87;;
23800;SDS011;12081;48.614;10.226;2023-10-19T03:58:54;42.93;;;30.73;;
23800;SDS011;12081;48.614;10.226;2023-10-19T04:01:42;37.83;;;29.40;;
23800;SDS011;12081;48.614;10.226;2023-10-19T04:04:30;39.73;;;30.70;;
23800;SDS011;12081;48.614;10.226;2023-10-19T04:07:14;38.57;;;29.13;;
23800;SDS011;12081;48.614;10.226;2023-10-19T04:10:08;40.57;;;29.30;;
23800;SDS011;12081;48.614;10.226;2023-10-19T04:13:13;36.17;;;28.63;;
23800;SDS011;12081;48.614;10.226;2023-10-19T04:15:58;40.47;;;29.93;;
23800;SDS011;12081;48.614;10.226;2023-10-19T04:18:42;41.97;;;28.77;;
23800;SDS011;12081;48.614;10.226;2023-10-19T04:21:28;40.87;;;30.03;;
23800;SDS011;12081;48.614;10.226;2023-10-19T04:24:13;40.23;;;30.40;;
23800;SDS011;12081;48.614;10.226;2023-10-19T04:26:58;43.77;;;32.27;;
23800;SDS011;12081;48.614;10.226;2023-10-19T04:29:43;41.70;;;32.80;;
23800;SDS011;12081;48.614;10.226;2023-10-19T04:32:29;43.30;;;32.93;;
23800;SDS011;12081;48.614;10.226;2023-10-19T04:35:16;45.90;;;31.00;;
23800;SDS011;12081;48.614;10.226;2023-10-19T04:38:06;48.20;;;34.00;;
23800;SDS011;12081;48.614;10.226;2023-10-19T04:40:53;46.37;;;33.10;;
23800;SDS011;12081;48.614;10.226;2023-10-19T04:43:39;42.83;;;33.00;;
23800;SDS011;12081;48.614;10.226;2023-10-19T04:46:23;41.33;;;31.73;;
23800;SDS011;12081;48.614;10.226;2023-10-19T04:49:08;41.57;;;32.07;;
23800;SDS011;12081;48.614;10.226;2023-10-19T04:51:53;42.77;;;30.87;;
23800;SDS011;12081;48.614;10.226;2023-10-19T04:54:37;46.77;;;34.63;;
23800;SDS011;12081;48.614;10.226;2023-10-19T04:57:22;42.27;;;32.13;;
23800;SDS011;12081;48.614;10.226;2023-10-19T05:00:07;43.53;;;32.03;;
23800;SDS011;12081;48.614;10.226;2023-10-19T05:02:57;43.30;;;32.47;;
23800;SDS011;12081;48.614;10.226;2023-10-19T05:08:32;43.77;;;33.27;;
23800;SDS011;12081;48.614;10.226;2023-10-19T05:13:46;45.33;;;32.20;;
23800;SDS011;12081;48.614;10.226;2023-10-19T05:16:31;49.77;;;31.87;;
23800;SDS011;12081;48.614;10.226;2023-10-19T05:19:16;43.33;;;30.57;;
23800;SDS011;12081;48.614;10.226;2023-10-19T05:22:00;43.80;;;31.97;;
23800;SDS011;12081;48.614;10.226;2023-10-19T05:24:46;44.83;;;31.40;;
23800;SDS011;12081;48.614;10.226;2023-10-19T05:27:33;45.67;;;30.97;;
23800;SDS011;12081;48.614;10.226;2023-10-19T05:30:19;41.70;;;30.73;;
23800;SDS011;12081;48.614;10.226;2023-10-19T05:33:06;45.10;;;31.20;;
23800;SDS011;12081;48.614;10.226;2023-10-19T05:35:51;40.67;;;31.00;;
23800;SDS011;12081;48.614;10.226;2023-10-19T05:38:36;37.90;;;29.37;;
23800;SDS011;12081;48.614;10.226;2023-10-19T05:41:21;36.73;;;28.97;;
23800;SDS011;12081;48.614;10.226;2023-10-19T05:44:06;38.30;;;27.73;;
23800;SDS011;12081;48.614;10.226;2023-10-19T05:46:50;39.37;;;28.93;;
23800;SDS011;12081;48.614;10.226;2023-10-19T05:49:35;40.97;;;29.60;;
23800;SDS011;12081;48.614;10.226;2023-10-19T05:52:19;36.17;;;28.97;;
23800;SDS011;12081;48.614;10.226;2023-10-19T05:55:04;37.53;;;27.40;;
23800;SDS011;12081;48.614;10.226;2023-10-19T05:57:49;41.60;;;29.73;;
23800;SDS011;12081;48.614;10.226;2023-10-19T06:00:34;36.90;;;28.87;;
23800;SDS011;12081;48.614;10.226;2023-10-19T06:03:18;37.00;;;29.57;;
23800;SDS011;12081;48.614;10.226;2023-10-19T06:06:03;38.17;;;29.70;;
23800;SDS011;12081;48.614;10.226;2023-10-19T06:08:48;41.03;;;29.17;;
23800;SDS011;12081;48.614;10.226;2023-10-19T06:11:37;40.90;;;29.67;;
23800;SDS011;12081;48.614;10.226;2023-10-19T06:14:26;39.30;;;29.97;;
23800;SDS011;12081;48.614;10.226;2023-10-19T06:17:11;38.60;;;27.80;;
23800;SDS011;12081;48.614;10.226;2023-10-19T06:20:02;36.90;;;28.80;;
23800;SDS011;12081;48.614;10.226;2023-10-19T06:22:49;40.67;;;30.80;;
23800;SDS011;12081;48.614;10.226;2023-10-19T06:25:37;42.70;;;29.63;;
23800;SDS011;12081;48.614;10.226;2023-10-19T06:28:21;37.30;;;29.23;;
23800;SDS011;12081;48.614;10.226;2023-10-19T06:31:06;37.97;;;29.27;;
23800;SDS011;12081;48.614;10.226;2023-10-19T06:33:51;35.67;;;27.97;;
23800;SDS011;12081;48.614;10.226;2023-10-19T06:36:35;34.00;;;27.80;;
23800;SDS011;12081;48.614;10.226;2023-10-19T06:39:19;36.17;;;27.57;;
23800;SDS011;12081;48.614;10.226;2023-10-19T06:42:04;35.77;;;27.43;;
23800;SDS011;12081;48.614;10.226;2023-10-19T06:44:48;32.67;;;26.60;;
23800;SDS011;12081;48.614;10.226;2023-10-19T06:47:37;36.73;;;26.67;;
23800;SDS011;12081;48.614;10.226;2023-10-19T06:50:22;34.23;;;26.33;;
23800;SDS011;12081;48.614;10.226;2023-10-19T06:53:07;35.27;;;27.20;;
23800;SDS011;12081;48.614;10.226;2023-10-19T06:55:52;31.47;;;25.37;;
23800;SDS011;12081;48.614;10.226;2023-10-19T06:58:36;33.57;;;26.07;;
23800;SDS011;12081;48.614;10.226;2023-10-19T07:01:20;30.17;;;24.90;;
23800;SDS011;12081;48.614;10.226;2023-10-19T07:04:09;30.50;;;24.67;;
23800;SDS011;12081;48.614;10.226;2023-10-19T07:06:53;30.27;;;23.37;;
23800;SDS011;12081;48.614;10.226;2023-10-19T07:09:37;28.07;;;23.63;;
23800;SDS011;12081;48.614;10.226;2023-10-19T07:12:22;27.70;;;23.60;;
23800;SDS011;12081;48.614;10.226;2023-10-19T07:15:06;26.00;;;22.60;;
23800;SDS011;12081;48.614;10.226;2023-10-19T07:17:51;29.47;;;22.17;;
23800;SDS011;12081;48.614;10.226;2023-10-19T07:20:37;25.43;;;22.47;;
23800;SDS011;12081;48.614;10.226;2023-10-19T07:23:22;24.53;;;20.53;;
23800;SDS011;12081;48.614;10.226;2023-10-19T07:26:06;23.20;;;18.30;;
23800;SDS011;12081;48.614;10.226;2023-10-19T07:28:50;21.27;;;19.07;;
23800;SDS011;12081;48.614;10.226;2023-10-19T07:31:34;20.83;;;18.60;;
23800;SDS011;12081;48.614;10.226;2023-10-19T07:34:18;21.60;;;18.83;;
23800;SDS011;12081;48.614;10.226;2023-10-19T07:37:08;22.60;;;18.70;;
23800;SDS011;12081;48.614;10.226;2023-10-19T07:39:58;23.60;;;19.47;;
23800;SDS011;12081;48.614;10.226;2023-10-19T07:42:43;21.60;;;19.20;;
23800;SDS011;12081;48.614;10.226;2023-10-19T07:45:28;22.53;;;18.67;;
23800;SDS011;12081;48.614;10.226;2023-10-19T07:48:13;22.70;;;19.27;;
23800;SDS011;12081;48.614;10.226;2023-10-19T07:50:57;23.10;;;19.30;;
23800;SDS011;12081;48.614;10.226;2023-10-19T07:53:42;24.73;;;19.93;;
23800;SDS011;12081;48.614;10.226;2023-10-19T07:56:26;23.73;;;20.70;;
23800;SDS011;12081;48.614;10.226;2023-10-19T07:59:12;22.77;;;20.27;;
23800;SDS011;12081;48.614;10.226;2023-10-19T08:01:56;22.93;;;20.40;;
23800;SDS011;12081;48.614;10.226;2023-10-19T08:04:40;21.43;;;19.13;;
23800;SDS011;12081;48.614;10.226;2023-10-19T08:07:24;22.13;;;19.27;;
23800;SDS011;12081;48.614;10.226;2023-10-19T08:10:10;24.10;;;19.33;;
23800;SDS011;12081;48.614;10.226;2023-10-19T08:12:55;27.63;;;20.50;;
23800;SDS011;12081;48.614;10.226;2023-10-19T08:15:39;25.07;;;19.60;;
23800;SDS011;12081;48.614;10.226;2023-10-19T08:18:23;21.57;;;19.17;;
23800;SDS011;12081;48.614;10.226;2023-10-19T08:21:08;25.77;;;20.10;;
23800;SDS011;12081;48.614;10.226;2023-10-19T08:23:53;29.67;;;19.87;;
23800;SDS011;12081;48.614;10.226;2023-10-19T08:26:38;22.43;;;19.00;;
23800;SDS011;12081;48.614;10.226;2023-10-19T08:29:25;24.53;;;20.30;;
23800;SDS011;12081;48.614;10.226;2023-10-19T08:32:10;25.37;;;21.63;;
23800;SDS011;12081;48.614;10.226;2023-10-19T08:34:55;25.07;;;21.70;;
23800;SDS011;12081;48.614;10.226;2023-10-19T08:37:39;26.97;;;22.63;;
23800;SDS011;12081;48.614;10.226;2023-10-19T08:40:24;27.13;;;21.90;;
23800;SDS011;12081;48.614;10.226;2023-10-19T08:43:10;26.23;;;21.80;;
23800;SDS011;12081;48.614;10.226;2023-10-19T08:45:57;25.97;;;21.00;;
23800;SDS011;12081;48.614;10.226;2023-10-19T08:48:43;24.97;;;21.73;;
23800;SDS011;12081;48.614;10.226;2023-10-19T08:51:27;25.33;;;21.87;;
23800;SDS011;12081;48.614;10.226;2023-10-19T08:54:13;26.23;;;22.40;;
23800;SDS011;12081;48.614;10.226;2023-10-19T08:56:58;24.17;;;21.63;;
23800;SDS011;12081;48.614;10.226;2023-10-19T08:59:43;29.40;;;23.10;;
23800;SDS011;12081;48.614;10.226;2023-10-19T09:02:27;26.47;;;22.00;;
23800;SDS011;12081;48.614;10.226;2023-10-19T09:05:11;26.20;;;22.27;;
23800;SDS011;12081;48.614;10.226;2023-10-19T09:08:03;25.83;;;22.73;;
23800;SDS011;12081;48.614;10.226;2023-10-19T09:10:50;26.43;;;22.43;;
23800;SDS011;12081;48.614;10.226;2023-10-19T09:13:42;27.30;;;23.37;;
23800;SDS011;12081;48.614;10.226;2023-10-19T09:16:30;25.70;;;22.83;;
23800;SDS011;12081;48.614;10.226;2023-10-19T09:19:14;24.73;;;21.80;;
23800;SDS011;12081;48.614;10.226;2023-10-19T09:21:58;27.57;;;23.10;;
23800;SDS011;12081;48.614;10.226;2023-10-19T09:24:43;25.17;;;22.37;;
23800;SDS011;12081;48.614;10.226;2023-10-19T09:27:34;24.27;;;21.70;;
23800;SDS011;12081;48.614;10.226;2023-10-19T09:30:19;25.27;;;21.83;;
23800;SDS011;12081;48.614;10.226;2023-10-19T09:33:05;24.97;;;22.27;;
23800;SDS011;12081;48.614;10.226;2023-10-19T09:35:50;24.80;;;22.13;;
23800;SDS011;12081;48.614;10.226;2023-10-19T09:38:37;22.13;;;19.83;;
23800;SDS011;12081;48.614;10.226;2023-10-19T09:41:35;23.40;;;20.90;;
23800;SDS011;12081;48.614;10.226;2023-10-19T09:44:20;24.40;;;21.10;;
23800;SDS011;12081;48.614;10.226;2023-10-19T09:47:09;24.90;;;20.73;;
23800;SDS011;12081;48.614;10.226;2023-10-19T09:49:58;23.13;;;19.50;;
23800;SDS011;12081;48.614;10.226;2023-10-19T09:52:42;23.97;;;21.37;;
23800;SDS011;12081;48.614;10.226;2023-10-19T09:55:29;24.63;;;20.90;;
23800;SDS011;12081;48.614;10.226;2023-10-19T09:58:19;24.87;;;20.57;;
23800;SDS011;12081;48.614;10.226;2023-10-19T10:01:07;21.67;;;19.37;;
23800;SDS011;12081;48.614;10.226;2023-10-19T10:03:55;23.13;;;20.20;;
23800;SDS011;12081;48.614;10.226;2023-10-19T10:09:35;22.03;;;19.67;;
23800;SDS011;12081;48.614;10.226;2023-10-19T10:12:24;21.77;;;19.43;;
23800;SDS011;12081;48.614;10.226;2023-10-19T10:15:10;22.63;;;19.83;;
23800;SDS011;12081;48.614;10.226;2023-10-19T10:17:55;22.97;;;20.67;;
23800;SDS011;12081;48.614;10.226;2023-10-19T10:20:42;22.97;;;19.77;;
23800;SDS011;12081;48.614;10.226;2023-10-19T10:23:26;21.37;;;18.90;;
23800;SDS011;12081;48.614;10.226;2023-10-19T10:26:19;21.73;;;19.40;;
23800;SDS011;12081;48.614;10.226;2023-10-19T10:29:15;22.77;;;18.50;;
23800;SDS011;12081;48.614;10.226;2023-10-19T10:32:07;20.70;;;18.07;;
23800;SDS011;12081;48.614;10.226;2023-10-19T10:34:53;19.67;;;17.57;;
23800;SDS011;12081;48.614;10.226;2023-10-19T10:37:38;19.67;;;17.27;;
23800;SDS011;12081;48.614;10.226;2023-10-19T10:43:33;21.03;;;16.10;;
23800;SDS011;12081;48.614;10.226;2023-10-19T10:46:18;19.57;;;17.37;;
23800;SDS011;12081;48.614;10.226;2023-10-19T10:49:08;18.30;;;16.33;;
23800;SDS011;12081;48.614;10.226;2023-10-19T10:51:53;21.53;;;18.43;;
23800;SDS011;12081;48.614;10.226;2023-10-19T10:54:38;18.73;;;16.53;;
23800;SDS011;12081;48.614;10.226;2023-10-19T10:57:23;19.10;;;16.83;;
23800;SDS011;12081;48.614;10.226;2023-10-19T11:00:09;19.07;;;15.83;;
23800;SDS011;12081;48.614;10.226;2023-10-19T11:03:06;17.40;;;15.17;;
23800;SDS011;12081;48.614;10.226;2023-10-19T11:05:51;17.20;;;15.20;;
23800;SDS011;12081;48.614;10.226;2023-10-19T11:08:36;20.43;;;15.97;;
23800;SDS011;12081;48.614;10.226;2023-10-19T11:11:22;17.77;;;15.03;;
23800;SDS011;12081;48.614;10.226;2023-10-19T11:14:10;17.83;;;15.83;;
23800;SDS011;12081;48.614;10.226;2023-10-19T11:17:11;18.17;;;16.37;;
23800;SDS011;12081;48.614;10.226;2023-10-19T11:19:57;20.63;;;16.87;;
23800;SDS011;12081;48.614;10.226;2023-10-19T11:22:52;21.33;;;15.13;;
23800;SDS011;12081;48.614;10.226;2023-10-19T11:25:39;17.47;;;15.53;;
23800;SDS011;12081;48.614;10.226;2023-10-19T11:28:23;19.47;;;15.67;;
23800;SDS011;12081;48.614;10.226;2023-10-19T11:34:01;16.80;;;15.10;;
23800;SDS011;12081;48.614;10.226;2023-10-19T11:36:45;17.37;;;15.23;;
23800;SDS011;12081;48.614;10.226;2023-10-19T11:39:29;17.47;;;15.67;;
23800;SDS011;12081;48.614;10.226;2023-10-19T11:42:14;17.43;;;15.30;;
23800;SDS011;12081;48.614;10.226;2023-10-19T11:45:01;18.53;;;15.60;;
23800;SDS011;12081;48.614;10.226;2023-10-19T11:47:46;20.63;;;16.70;;
23800;SDS011;12081;48.614;10.226;2023-10-19T11:50:30;22.33;;;18.93;;
23800;SDS011;12081;48.614;10.226;2023-10-19T11:53:14;19.63;;;16.87;;
23800;SDS011;12081;48.614;10.226;2023-10-19T11:56:02;18.17;;;15.80;;
23800;SDS011;12081;48.614;10.226;2023-10-19T11:58:47;19.33;;;15.90;;
23800;SDS011;12081;48.614;10.226;2023-10-19T12:01:31;19.97;;;17.67;;
23800;SDS011;12081;48.614;10.226;2023-10-19T12:04:16;19.43;;;17.40;;
23800;SDS011;12081;48.614;10.226;2023-10-19T12:07:00;20.67;;;18.43;;
23800;SDS011;12081;48.614;10.226;2023-10-19T12:09:44;19.70;;;17.57;;
23800;SDS011;12081;48.614;10.226;2023-10-19T12:12:29;22.57;;;19.97;;
23800;SDS011;12081;48.614;10.226;2023-10-19T12:15:13;22.47;;;20.07;;
23800;SDS011;12081;48.614;10.226;2023-10-19T12:17:57;23.20;;;20.70;;
23800;SDS011;12081;48.614;10.226;2023-10-19T12:20:41;24.70;;;20.93;;
23800;SDS011;12081;48.614;10.226;2023-10-19T12:23:29;22.83;;;20.43;;
23800;SDS011;12081;48.614;10.226;2023-10-19T12:26:14;23.87;;;21.37;;
23800;SDS011;12081;48.614;10.226;2023-10-19T12:28:58;27.07;;;23.43;;
23800;SDS011;12081;48.614;10.226;2023-10-19T12:31:43;25.33;;;22.50;;
23800;SDS011;12081;48.614;10.226;2023-10-19T12:34:27;23.60;;;21.17;;
23800;SDS011;12081;48.614;10.226;2023-10-19T12:37:13;23.37;;;20.87;;
23800;SDS011;12081;48.614;10.226;2023-10-19T12:39:57;22.00;;;18.70;;
23800;SDS011;12081;48.614;10.226;2023-10-19T12:42:41;24.30;;;20.73;;
23800;SDS011;12081;48.614;10.226;2023-10-19T12:45:26;22.33;;;19.33;;
23800;SDS011;12081;48.614;10.226;2023-10-19T12:48:10;21.47;;;17.67;;
23800;SDS011;12081;48.614;10.226;2023-10-19T12:50:55;19.63;;;17.60;;
23800;SDS011;12081;48.614;10.226;2023-10-19T12:53:39;21.17;;;17.87;;
23800;SDS011;12081;48.614;10.226;2023-10-19T12:56:23;18.20;;;16.30;;
23800;SDS011;12081;48.614;10.226;2023-10-19T12:59:07;23.53;;;17.17;;
23800;SDS011;12081;48.614;10.226;2023-10-19T13:01:51;19.67;;;17.57;;
23800;SDS011;12081;48.614;10.226;2023-10-19T13:04:41;21.43;;;18.80;;
23800;SDS011;12081;48.614;10.226;2023-10-19T13:07:26;21.13;;;18.87;;
23800;SDS011;12081;48.614;10.226;2023-10-19T13:10:10;20.73;;;18.60;;
23800;SDS011;12081;48.614;10.226;2023-10-19T13:13:06;20.80;;;18.60;;
23800;SDS011;12081;48.614;10.226;2023-10-19T13:15:55;21.73;;;19.47;;
23800;SDS011;12081;48.614;10.226;2023-10-19T13:18:39;22.07;;;19.73;;
23800;SDS011;12081;48.614;10.226;2023-10-19T13:21:23;22.47;;;20.23;;
23800;SDS011;12081;48.614;10.226;2023-10-19T13:24:12;25.33;;;21.50;;
23800;SDS011;12081;48.614;10.226;2023-10-19T13:26:57;22.37;;;20.10;;
23800;SDS011;12081;48.614;10.226;2023-10-19T13:29:41;24.50;;;20.57;;
23800;SDS011;12081;48.614;10.226;2023-10-19T13:32:28;25.87;;;21.60;;
23800;SDS011;12081;48.614;10.226;2023-10-19T13:35:13;25.87;;;21.83;;
23800;SDS011;12081;48.614;10.226;2023-10-19T13:37:57;25.30;;;21.10;;
23800;SDS011;12081;48.614;10.226;2023-10-19T13:40:41;23.33;;;21.03;;
23800;SDS011;12081;48.614;10.226;2023-10-19T13:43:26;22.63;;;20.23;;
23800;SDS011;12081;48.614;10.226;2023-10-19T13:46:10;23.27;;;20.87;;
23800;SDS011;12081;48.614;10.226;2023-10-19T13:48:55;22.33;;;19.93;;
23800;SDS011;12081;48.614;10.226;2023-10-19T13:51:39;23.40;;;20.63;;
23800;SDS011;12081;48.614;10.226;2023-10-19T13:54:23;22.90;;;20.43;;
23800;SDS011;12081;48.614;10.226;2023-10-19T13:57:07;24.70;;;22.13;;
23800;SDS011;12081;48.614;10.226;2023-10-19T13:59:51;26.00;;;20.93;;
23800;SDS011;12081;48.614;10.226;2023-10-19T14:02:37;30.53;;;27.33;;
23800;SDS011;12081;48.614;10.226;2023-10-19T14:05:25;24.93;;;22.17;;
23800;SDS011;12081;48.614;10.226;2023-10-19T14:08:10;25.23;;;22.07;;
23800;SDS011;12081;48.614;10.226;2023-10-19T14:11:00;24.80;;;22.10;;
23800;SDS011;12081;48.614;10.226;2023-10-19T14:13:45;24.60;;;21.43;;
23800;SDS011;12081;48.614;10.226;2023-10-19T14:16:29;27.17;;;22.17;;
23800;SDS011;12081;48.614;10.226;2023-10-19T14:19:13;26.73;;;21.60;;
23800;SDS011;12081;48.614;10.226;2023-10-19T14:21:58;26.63;;;21.90;;
23800;SDS011;12081;48.614;10.226;2023-10-19T14:24:42;24.73;;;22.13;;
23800;SDS011;12081;48.614;10.226;2023-10-19T14:27:26;24.90;;;22.30;;
23800;SDS011;12081;48.614;10.226;2023-10-19T14:30:12;25.23;;;22.63;;
23800;SDS011;12081;48.614;10.226;2023-10-19T14:32:58;26.10;;;22.47;;
23800;SDS011;12081;48.614;10.226;2023-10-19T14:35:42;24.90;;;22.20;;
23800;SDS011;12081;48.614;10.226;2023-10-19T14:38:26;24.37;;;21.77;;
23800;SDS011;12081;48.614;10.226;2023-10-19T14:41:11;29.20;;;26.07;;
23800;SDS011;12081;48.614;10.226;2023-10-19T14:43:56;26.40;;;23.80;;
23800;SDS011;12081;48.614;10.226;2023-10-19T14:46:43;25.20;;;22.70;;
23800;SDS011;12081;48.614;10.226;2023-10-19T14:49:27;25.00;;;21.47;;
23800;SDS011;12081;48.614;10.226;2023-10-19T14:52:11;23.77;;;21.37;;
23800;SDS011;12081;48.614;10.226;2023-10-19T14:54:55;24.67;;;22.03;;
23800;SDS011;12081;48.614;10.226;2023-10-19T14:57:39;23.80;;;21.33;;
23800;SDS011;12081;48.614;10.226;2023-10-19T15:00:25;23.73;;;20.90;;
23800;SDS011;12081;48.614;10.226;2023-10-19T15:03:10;23.17;;;20.90;;
23800;SDS011;12081;48.614;10.226;2023-10-19T15:05:55;23.40;;;21.00;;
23800;SDS011;12081;48.614;10.226;2023-10-19T15:08:39;22.43;;;20.03;;
23800;SDS011;12081;48.614;10.226;2023-10-19T15:11:23;23.80;;;21.30;;
23800;SDS011;12081;48.614;10.226;2023-10-19T15:14:08;21.83;;;19.53;;
23800;SDS011;12081;48.614;10.226;2023-10-19T15:16:54;25.00;;;22.07;;
23800;SDS011;12081;48.614;10.226;2023-10-19T15:19:38;23.33;;;21.03;;
23800;SDS011;12081;48.614;10.226;2023-10-19T15:22:22;24.57;;;22.00;;
23800;SDS011;12081;48.614;10.226;2023-10-19T15:25:06;23.97;;;21.33;;
23800;SDS011;12081;48.614;10.226;2023-10-19T15:27:52;25.53;;;22.77;;
23800;SDS011;12081;48.614;10.226;2023-10-19T15:30:37;29.57;;;26.43;;
23800;SDS011;12081;48.614;10.226;2023-10-19T15:33:21;27.20;;;24.30;;
23800;SDS011;12081;48.614;10.226;2023-10-19T15:36:05;30.17;;;25.97;;
23800;SDS011;12081;48.614;10.226;2023-10-19T15:38:50;30.33;;;24.97;;
23800;SDS011;12081;48.614;10.226;2023-10-19T15:41:34;28.70;;;24.67;;
23800;SDS011;12081;48.614;10.226;2023-10-19T15:44:19;26.77;;;23.73;;
23800;SDS011;12081;48.614;10.226;2023-10-19T15:47:04;26.07;;;23.37;;
23800;SDS011;12081;48.614;10.226;2023-10-19T15:49:54;31.37;;;26.63;;
23800;SDS011;12081;48.614;10.226;2023-10-19T15:52:41;28.20;;;24.27;;
23800;SDS011;12081;48.614;10.226;2023-10-19T15:55:27;25.27;;;22.57;;
23800;SDS011;12081;48.614;10.226;2023-10-19T15:58:11;25.97;;;23.00;;
23800;SDS011;12081;48.614;10.226;2023-10-19T16:00:55;26.10;;;22.87;;
23800;SDS011;12081;48.614;10.226;2023-10-19T16:03:39;26.27;;;23.30;;
23800;SDS011;12081;48.614;10.226;2023-10-19T16:06:23;27.77;;;24.83;;
23800;SDS011;12081;48.614;10.226;2023-10-19T16:09:07;29.00;;;25.60;;
23800;SDS011;12081;48.614;10.226;2023-10-19T16:11:54;31.63;;;26.73;;
23800;SDS011;12081;48.614;10.226;2023-10-19T16:14:39;32.33;;;27.20;;
23800;SDS011;12081;48.614;10.226;2023-10-19T16:17:23;28.37;;;24.90;;
23800;SDS011;12081;48.614;10.226;2023-10-19T16:20:07;28.83;;;24.73;;
23800;SDS011;12081;48.614;10.226;2023-10-19T16:22:58;29.90;;;25.20;;